Time;durP1;ratioP1;P1;durP2;ratioP2;P2;SDS_P1;SDS_P2;PMS_P1;PMS_P2;Temp;Humidity;BMP_temperature;BMP_pressure;BME280_temperature;BME280_humidity;BME280_pressure;Samples;Min_cycle;Max_cycle;Signal;HPM_P1;HPM_P2
2022/08/05 00:02:02;;;;;;;5.70;5.00;;;;;;;;;;5111541;27;20630;-72
2022/08/05 00:04:27;;;;;;;5.03;4.63;;;;;;;;;;5115881;27;20083;-72
2022/08/05 00:06:53;;;;;;;5.00;4.60;;;;;;;;;;5119381;27;20032;-74
2022/08/05 00:09:18;;;;;;;5.07;4.72;;;;;;;;;;5115567;27;20023;-72
2022/08/05 00:11:44;;;;;;;5.43;4.93;;;;;;;;;;5114594;27;20027;-74
2022/08/05 00:14:09;;;;;;;5.00;4.50;;;;;;;;;;5113731;27;20457;-72
2022/08/05 00:16:34;;;;;;;4.63;4.22;;;;;;;;;;5115147;27;20023;-72
2022/08/05 00:19:00;;;;;;;4.47;4.07;;;;;;;;;;5117605;27;20038;-71
2022/08/05 00:21:25;;;;;;;4.95;4.55;;;;;;;;;;5118469;27;20030;-73
2022/08/05 00:23:50;;;;;;;4.93;4.55;;;;;;;;;;5117073;27;20034;-71
2022/08/05 00:26:16;;;;;;;5.38;4.88;;;;;;;;;;5110591;27;20443;-72
2022/08/05 00:28:41;;;;;;;4.78;4.38;;;;;;;;;;5118698;27;20099;-72
2022/08/05 00:31:07;;;;;;;5.65;5.10;;;;;;;;;;5117457;27;20035;-72
2022/08/05 00:33:33;;;;;;;5.47;4.97;;;;;;;;;;5108676;27;20058;-72
2022/08/05 00:35:58;;;;;;;4.75;4.40;;;;;;;;;;5119211;27;20253;-72
2022/08/05 00:38:24;;;;;;;6.13;5.55;;;;;;;;;;5118864;27;20159;-73
2022/08/05 00:40:50;;;;;;;5.88;4.68;;;;;;;;;;5109173;27;20050;-72
2022/08/05 00:43:16;;;;;;;6.63;4.93;;;;;;;;;;5118389;27;20062;-74
2022/08/05 00:45:42;;;;;;;5.75;5.25;;;;;;;;;;5118932;27;20442;-73
2022/08/05 00:48:09;;;;;;;5.63;5.05;;;;;;;;;;5118430;27;20019;-72
2022/08/05 00:50:34;;;;;;;5.65;5.15;;;;;;;;;;5118388;27;20042;-73
2022/08/05 00:52:59;;;;;;;5.20;4.80;;;;;;;;;;5119637;27;20022;-72
2022/08/05 00:55:25;;;;;;;5.38;4.90;;;;;;;;;;5117289;27;20022;-73
2022/08/05 00:57:50;;;;;;;5.18;4.78;;;;;;;;;;5117917;27;20383;-73
2022/08/05 01:00:16;;;;;;;5.25;4.43;;;;;;;;;;5117760;27;20050;-72
2022/08/05 01:02:41;;;;;;;7.32;4.88;;;;;;;;;;5118198;27;20062;-72
2022/08/05 01:05:06;;;;;;;5.43;4.88;;;;;;;;;;5116470;27;20035;-72
2022/08/05 01:07:32;;;;;;;5.25;4.85;;;;;;;;;;5110923;27;20063;-73
2022/08/05 01:09:57;;;;;;;4.57;4.20;;;;;;;;;;5113496;27;20031;-71
2022/08/05 01:12:24;;;;;;;5.18;4.70;;;;;;;;;;5118761;27;20035;-73
2022/08/05 01:14:52;;;;;;;8.57;4.60;;;;;;;;;;5116642;27;20083;-71
2022/08/05 01:17:29;;;;;;;5.10;4.60;;;;;;;;;;5116542;27;20107;-71
2022/08/05 01:20:13;;;;;;;5.00;4.65;;;;;;;;;;5115352;27;20027;-73
2022/08/05 01:22:57;;;;;;;4.95;4.65;;;;;;;;;;5111250;27;20027;-71
2022/08/05 01:25:43;;;;;;;5.57;5.07;;;;;;;;;;5094968;27;20019;-71
2022/08/05 01:28:47;;;;;;;5.03;4.63;;;;;;;;;;5115363;27;20061;-71
2022/08/05 01:31:21;;;;;;;4.88;4.53;;;;;;;;;;5084374;27;20019;-72
2022/08/05 01:34:00;;;;;;;5.10;4.70;;;;;;;;;;5116338;27;20031;-71
2022/08/05 01:36:28;;;;;;;4.80;4.50;;;;;;;;;;5108418;27;20019;-71
2022/08/05 01:38:54;;;;;;;5.82;4.97;;;;;;;;;;5113882;27;20011;-72
2022/08/05 01:41:21;;;;;;;5.68;5.28;;;;;;;;;;5108280;27;20050;-73
2022/08/05 01:43:48;;;;;;;5.70;5.18;;;;;;;;;;5116496;27;20035;-71
2022/08/05 01:46:13;;;;;;;5.28;4.70;;;;;;;;;;5115000;27;20075;-74
2022/08/05 01:48:40;;;;;;;6.57;5.15;;;;;;;;;;5116755;27;20027;-73
2022/08/05 01:51:06;;;;;;;5.20;4.68;;;;;;;;;;5118364;27;20019;-71
2022/08/05 01:53:33;;;;;;;6.05;5.55;;;;;;;;;;5108269;27;20023;-72
2022/08/05 01:56:00;;;;;;;5.90;5.40;;;;;;;;;;5113228;27;20034;-73
2022/08/05 01:58:26;;;;;;;5.43;5.03;;;;;;;;;;5106489;27;20026;-71
2022/08/05 02:00:52;;;;;;;5.22;4.82;;;;;;;;;;5110155;27;20127;-72
2022/08/05 02:03:36;;;;;;;5.35;4.95;;;;;;;;;;5117783;27;20011;-72
2022/08/05 02:06:04;;;;;;;5.38;4.97;;;;;;;;;;5117024;27;20334;-72
2022/08/05 02:08:29;;;;;;;5.38;4.97;;;;;;;;;;5117487;27;20230;-72
2022/08/05 02:10:58;;;;;;;5.63;5.10;;;;;;;;;;5115354;27;20143;-72
2022/08/05 02:13:31;;;;;;;5.13;4.72;;;;;;;;;;5106553;27;20019;-72
2022/08/05 02:16:01;;;;;;;5.47;5.05;;;;;;;;;;5117621;27;20019;-72
2022/08/05 02:18:32;;;;;;;5.50;5.00;;;;;;;;;;5114495;27;20901;-71
2022/08/05 02:21:07;;;;;;;5.82;5.32;;;;;;;;;;5114607;27;20461;-72
2022/08/05 02:23:35;;;;;;;5.55;5.05;;;;;;;;;;5115201;27;20034;-72
2022/08/05 02:26:01;;;;;;;5.40;5.00;;;;;;;;;;5107471;27;20056;-71
2022/08/05 02:28:28;;;;;;;4.90;4.50;;;;;;;;;;5117722;27;20034;-74
2022/08/05 02:31:14;;;;;;;5.07;4.68;;;;;;;;;;5103364;27;20015;-72
2022/08/05 02:33:43;;;;;;;5.60;5.20;;;;;;;;;;5118076;27;20122;-73
2022/08/05 02:36:10;;;;;;;5.88;4.97;;;;;;;;;;5087738;27;20386;-71
2022/08/05 02:38:36;;;;;;;5.35;4.95;;;;;;;;;;5116005;27;20031;-71
2022/08/05 02:41:02;;;;;;;6.10;5.55;;;;;;;;;;5116572;28;20094;-71
2022/08/05 02:43:28;;;;;;;5.53;5.03;;;;;;;;;;5116328;28;20011;-71
2022/08/05 02:45:53;;;;;;;5.65;5.15;;;;;;;;;;5107074;28;20027;-72
2022/08/05 02:48:20;;;;;;;5.15;4.75;;;;;;;;;;5116357;28;20457;-70
2022/08/05 02:50:47;;;;;;;5.60;5.18;;;;;;;;;;5114739;28;20030;-70
2022/08/05 02:53:13;;;;;;;5.85;5.10;;;;;;;;;;5113015;28;20036;-70
2022/08/05 02:55:39;;;;;;;5.60;5.10;;;;;;;;;;5091467;28;20024;-70
2022/08/05 02:58:05;;;;;;;6.53;5.93;;;;;;;;;;5111871;28;20354;-72
2022/08/05 03:00:32;;;;;;;6.78;5.07;;;;;;;;;;5107227;28;20069;-70
2022/08/05 03:02:57;;;;;;;5.32;4.93;;;;;;;;;;5106495;28;20093;-74
2022/08/05 03:05:23;;;;;;;5.15;4.75;;;;;;;;;;5116605;28;20454;-72
2022/08/05 03:07:48;;;;;;;5.03;4.63;;;;;;;;;;5115263;28;20462;-73
2022/08/05 03:10:15;;;;;;;5.43;5.00;;;;;;;;;;5118679;28;20042;-72
2022/08/05 03:12:40;;;;;;;5.50;5.00;;;;;;;;;;5117296;28;20376;-72
2022/08/05 03:15:07;;;;;;;5.40;5.00;;;;;;;;;;5111501;28;20027;-71
2022/08/05 03:17:32;;;;;;;5.80;5.32;;;;;;;;;;5107053;28;20084;-73
2022/08/05 03:19:58;;;;;;;5.88;5.38;;;;;;;;;;5099933;28;20039;-73
2022/08/05 03:22:24;;;;;;;6.43;5.93;;;;;;;;;;5115890;28;20031;-72
2022/08/05 03:24:49;;;;;;;6.00;5.50;;;;;;;;;;5116864;28;20035;-72
2022/08/05 03:27:15;;;;;;;7.63;5.35;;;;;;;;;;5117501;27;20039;-71
2022/08/05 03:29:41;;;;;;;6.20;5.70;;;;;;;;;;5117938;27;20023;-72
2022/08/05 03:32:10;;;;;;;6.18;5.70;;;;;;;;;;5107150;27;20476;-72
2022/08/05 03:34:36;;;;;;;5.78;5.38;;;;;;;;;;5113027;27;20105;-74
2022/08/05 03:37:02;;;;;;;5.88;5.40;;;;;;;;;;5117629;27;20027;-72
2022/08/05 03:39:27;;;;;;;5.68;5.25;;;;;;;;;;5110003;27;20033;-72
2022/08/05 03:41:53;;;;;;;5.43;5.00;;;;;;;;;;5120483;27;20051;-74
2022/08/05 03:44:18;;;;;;;6.00;5.50;;;;;;;;;;5119315;27;20354;-71
2022/08/05 03:46:43;;;;;;;6.28;5.75;;;;;;;;;;5111159;27;20023;-72
2022/08/05 03:49:09;;;;;;;8.05;5.72;;;;;;;;;;5117651;27;20099;-71
2022/08/05 03:51:37;;;;;;;8.63;6.13;;;;;;;;;;5101558;27;20050;-72
2022/08/05 03:54:07;;;;;;;6.25;5.68;;;;;;;;;;5095646;27;20625;-71
2022/08/05 03:56:37;;;;;;;5.45;4.90;;;;;;;;;;5096407;27;20023;-71
2022/08/05 03:59:05;;;;;;;5.45;5.05;;;;;;;;;;5101044;27;20027;-71
2022/08/05 04:01:31;;;;;;;6.22;5.72;;;;;;;;;;5098278;27;20042;-70
2022/08/05 04:03:57;;;;;;;6.45;5.80;;;;;;;;;;5098052;27;20026;-71
2022/08/05 04:06:22;;;;;;;5.57;5.10;;;;;;;;;;5098996;27;20110;-72
2022/08/05 04:08:48;;;;;;;6.43;5.57;;;;;;;;;;5096506;27;20111;-73
2022/08/05 04:11:14;;;;;;;5.18;4.78;;;;;;;;;;5095137;27;20432;-71
2022/08/05 04:13:39;;;;;;;5.68;5.18;;;;;;;;;;5078733;28;20027;-71
2022/08/05 04:16:06;;;;;;;7.15;6.53;;;;;;;;;;5100702;27;20023;-70
2022/08/05 04:18:32;;;;;;;8.68;7.78;;;;;;;;;;5107702;27;20037;-70
2022/08/05 04:20:57;;;;;;;10.88;9.77;;;;;;;;;;5108794;27;20027;-71
2022/08/05 04:23:24;;;;;;;11.02;10.02;;;;;;;;;;5117719;27;20019;-72
2022/08/05 04:25:50;;;;;;;9.13;8.32;;;;;;;;;;5118754;27;20362;-70
2022/08/05 04:28:15;;;;;;;9.63;8.23;;;;;;;;;;5109757;27;20022;-69
2022/08/05 04:30:40;;;;;;;8.57;7.78;;;;;;;;;;5105388;27;20031;-72
2022/08/05 04:33:06;;;;;;;9.00;8.05;;;;;;;;;;5099887;27;20019;-72
2022/08/05 04:35:31;;;;;;;11.70;10.63;;;;;;;;;;5097674;27;20111;-72
2022/08/05 04:37:56;;;;;;;13.00;11.77;;;;;;;;;;5096965;27;20065;-70
2022/08/05 04:40:22;;;;;;;13.90;12.68;;;;;;;;;;5110460;27;20652;-73
2022/08/05 04:42:47;;;;;;;12.65;11.45;;;;;;;;;;5111406;27;20015;-70
2022/08/05 04:45:13;;;;;;;10.70;8.77;;;;;;;;;;5112191;27;20059;-71
2022/08/05 04:47:38;;;;;;;7.95;7.25;;;;;;;;;;5117213;27;20197;-72
2022/08/05 04:50:03;;;;;;;11.10;7.25;;;;;;;;;;5113013;27;20034;-71
2022/08/05 04:52:29;;;;;;;7.72;7.03;;;;;;;;;;5113407;27;20144;-71
2022/08/05 04:54:54;;;;;;;7.75;7.15;;;;;;;;;;5119522;27;20023;-71
2022/08/05 04:57:20;;;;;;;6.97;6.38;;;;;;;;;;5118098;27;20045;-71
2022/08/05 04:59:45;;;;;;;6.95;6.40;;;;;;;;;;5118032;27;20042;-70
2022/08/05 05:02:10;;;;;;;6.20;5.70;;;;;;;;;;5115185;27;20504;-70
2022/08/05 05:04:36;;;;;;;6.05;5.55;;;;;;;;;;5116801;27;20383;-72
2022/08/05 05:07:01;;;;;;;6.22;5.72;;;;;;;;;;5118782;27;20019;-71
2022/08/05 05:09:26;;;;;;;5.65;5.15;;;;;;;;;;5118837;27;20019;-73
2022/08/05 05:11:52;;;;;;;6.15;5.72;;;;;;;;;;5118131;27;20031;-71
2022/08/05 05:14:17;;;;;;;6.20;5.70;;;;;;;;;;5118086;27;20434;-72
2022/08/05 05:16:42;;;;;;;5.75;5.25;;;;;;;;;;5119884;27;20023;-71
2022/08/05 05:19:08;;;;;;;5.60;5.20;;;;;;;;;;5118965;27;20023;-71
2022/08/05 05:21:33;;;;;;;6.05;5.45;;;;;;;;;;5117863;27;20035;-71
2022/08/05 05:23:58;;;;;;;6.13;4.97;;;;;;;;;;5118655;27;20044;-72
2022/08/05 05:26:24;;;;;;;5.68;5.28;;;;;;;;;;5115394;27;20022;-72
2022/08/05 05:28:49;;;;;;;5.57;5.07;;;;;;;;;;5119374;27;20349;-71
2022/08/05 05:31:15;;;;;;;6.53;5.25;;;;;;;;;;5118536;27;20350;-73
2022/08/05 05:33:40;;;;;;;5.53;5.13;;;;;;;;;;5117776;27;20070;-71
2022/08/05 05:36:05;;;;;;;5.50;5.03;;;;;;;;;;5118433;27;20035;-72
2022/08/05 05:38:31;;;;;;;5.70;5.05;;;;;;;;;;5118278;27;20042;-72
2022/08/05 05:40:56;;;;;;;5.80;5.35;;;;;;;;;;5117119;27;20054;-72
2022/08/05 05:43:22;;;;;;;5.10;4.70;;;;;;;;;;5116425;27;20028;-71
2022/08/05 05:45:47;;;;;;;5.65;5.15;;;;;;;;;;5116835;27;20031;-71
2022/08/05 05:48:12;;;;;;;6.80;4.70;;;;;;;;;;5118762;27;20087;-71
2022/08/05 05:50:39;;;;;;;4.88;4.53;;;;;;;;;;5115168;27;20031;-72
2022/08/05 05:53:05;;;;;;;5.65;5.18;;;;;;;;;;5118883;27;20023;-73
2022/08/05 05:55:30;;;;;;;5.50;5.10;;;;;;;;;;5114925;27;20421;-71
2022/08/05 05:57:56;;;;;;;5.00;4.60;;;;;;;;;;5116857;27;20031;-74
2022/08/05 06:00:22;;;;;;;5.60;5.07;;;;;;;;;;5117851;27;20135;-71
2022/08/05 06:02:47;;;;;;;6.32;4.93;;;;;;;;;;5117734;27;20019;-71
2022/08/05 06:05:13;;;;;;;4.93;4.53;;;;;;;;;;5117140;27;20100;-71
2022/08/05 06:07:39;;;;;;;6.05;5.45;;;;;;;;;;5116750;27;20062;-73
2022/08/05 06:10:05;;;;;;;5.50;5.00;;;;;;;;;;5116395;27;20047;-71
2022/08/05 06:12:30;;;;;;;4.57;4.13;;;;;;;;;;5115326;27;20027;-71
2022/08/05 06:14:55;;;;;;;5.90;5.40;;;;;;;;;;5118083;27;20334;-72
2022/08/05 06:17:21;;;;;;;5.93;5.43;;;;;;;;;;5115309;27;20026;-71
2022/08/05 06:19:46;;;;;;;5.25;4.75;;;;;;;;;;5116671;27;20031;-73
2022/08/05 06:22:12;;;;;;;5.45;4.95;;;;;;;;;;5117437;27;20027;-71
2022/08/05 06:24:40;;;;;;;5.53;5.03;;;;;;;;;;5116934;27;20011;-71
2022/08/05 06:27:06;;;;;;;5.33;4.77;;;;;;;;;;5115694;27;20110;-71
2022/08/05 06:29:31;;;;;;;6.25;4.70;;;;;;;;;;5115714;27;20528;-71
2022/08/05 06:31:56;;;;;;;4.63;4.13;;;;;;;;;;5116968;27;20034;-71
2022/08/05 06:34:22;;;;;;;5.18;4.10;;;;;;;;;;5114159;27;20027;-71
2022/08/05 06:36:48;;;;;;;5.18;4.40;;;;;;;;;;5115646;27;20128;-71
2022/08/05 06:39:13;;;;;;;4.55;4.07;;;;;;;;;;5116941;27;20098;-72
2022/08/05 06:41:39;;;;;;;4.65;4.25;;;;;;;;;;5117654;28;20157;-73
2022/08/05 06:44:04;;;;;;;5.90;4.93;;;;;;;;;;5116619;28;20027;-72
2022/08/05 06:46:29;;;;;;;5.43;4.60;;;;;;;;;;5116823;28;20417;-71
2022/08/05 06:48:55;;;;;;;4.93;4.53;;;;;;;;;;5113736;28;20038;-73
2022/08/05 06:51:20;;;;;;;5.07;4.68;;;;;;;;;;5116504;28;20038;-71
2022/08/05 06:53:46;;;;;;;4.43;4.03;;;;;;;;;;5117215;28;20409;-73
2022/08/05 06:56:11;;;;;;;4.35;3.95;;;;;;;;;;5118333;28;20323;-71
2022/08/05 06:58:36;;;;;;;5.63;4.15;;;;;;;;;;5116296;28;20879;-73
2022/08/05 07:01:02;;;;;;;3.95;3.55;;;;;;;;;;5116148;28;20023;-72
2022/08/05 07:03:29;;;;;;;5.78;4.30;;;;;;;;;;5118848;27;20023;-74
2022/08/05 07:05:54;;;;;;;4.28;3.85;;;;;;;;;;5120700;27;20019;-72
2022/08/05 07:08:23;;;;;;;4.18;3.72;;;;;;;;;;5123140;27;20337;-71
2022/08/05 07:10:49;;;;;;;4.22;3.80;;;;;;;;;;5120362;27;20430;-75
2022/08/05 07:18:42;;;;;;;4.55;3.53;;;;;;;;;;5120272;27;20369;-71
2022/08/05 07:21:07;;;;;;;8.57;4.13;;;;;;;;;;5120425;27;20031;-71
2022/08/05 07:23:33;;;;;;;6.68;4.20;;;;;;;;;;5120062;27;20429;-71
2022/08/05 07:25:59;;;;;;;6.45;3.75;;;;;;;;;;5101788;27;20483;-72
2022/08/05 07:28:25;;;;;;;4.50;4.10;;;;;;;;;;5121057;27;20020;-73
2022/08/05 07:30:50;;;;;;;4.60;4.00;;;;;;;;;;5122365;27;20042;-71
2022/08/05 07:33:16;;;;;;;4.97;4.57;;;;;;;;;;5119526;27;20027;-73
2022/08/05 07:35:41;;;;;;;4.13;3.83;;;;;;;;;;5119754;27;20058;-72
2022/08/05 07:38:06;;;;;;;3.83;3.53;;;;;;;;;;5120061;27;20027;-72
2022/08/05 07:40:32;;;;;;;4.13;3.72;;;;;;;;;;5109446;27;20078;-72
2022/08/05 07:42:57;;;;;;;3.90;3.40;;;;;;;;;;5114515;27;20070;-71
2022/08/05 07:45:22;;;;;;;4.05;3.35;;;;;;;;;;5120714;27;20067;-71
2022/08/05 07:47:48;;;;;;;3.90;3.60;;;;;;;;;;5119256;27;20373;-74
2022/08/05 07:50:13;;;;;;;3.97;3.67;;;;;;;;;;5122818;27;20107;-74
2022/08/05 07:52:39;;;;;;;3.50;3.20;;;;;;;;;;5119208;27;20028;-74
2022/08/05 07:55:05;;;;;;;3.88;3.50;;;;;;;;;;5119465;27;20495;-72
2022/08/05 07:57:31;;;;;;;3.75;3.45;;;;;;;;;;5121411;27;20024;-71
2022/08/05 07:59:56;;;;;;;4.18;3.58;;;;;;;;;;5118256;27;20386;-71
2022/08/05 08:02:25;;;;;;;3.97;3.28;;;;;;;;;;5122695;27;20015;-71
2022/08/05 08:04:50;;;;;;;;;;;;;;;;;;5120069;27;20023;-72
2022/08/05 08:07:19;;;;;;;4.27;3.30;;;;;;;;;;5120984;27;19912;-71
2022/08/05 08:09:44;;;;;;;3.85;3.45;;;;;;;;;;5118483;27;20023;-71
2022/08/05 08:12:12;;;;;;;3.58;2.92;;;;;;;;;;5117215;27;20361;-73
2022/08/05 08:14:38;;;;;;;3.65;3.28;;;;;;;;;;5119083;27;20095;-71
2022/08/05 08:17:03;;;;;;;2.92;2.70;;;;;;;;;;5118392;27;20402;-72
2022/08/05 08:19:28;;;;;;;3.60;3.30;;;;;;;;;;5120056;27;20091;-70
2022/08/05 08:21:53;;;;;;;3.35;3.00;;;;;;;;;;5117986;27;20420;-75
2022/08/05 08:24:19;;;;;;;2.97;2.78;;;;;;;;;;5121620;27;20043;-73
2022/08/05 08:26:44;;;;;;;2.55;2.35;;;;;;;;;;5120080;27;20049;-71
2022/08/05 08:29:09;;;;;;;4.65;3.10;;;;;;;;;;5120230;27;20027;-74
2022/08/05 08:31:35;;;;;;;3.30;3.00;;;;;;;;;;5118551;27;20493;-73
2022/08/05 08:34:00;;;;;;;3.08;2.78;;;;;;;;;;5102862;27;20457;-72
2022/08/05 08:36:25;;;;;;;3.03;2.70;;;;;;;;;;5118882;27;20486;-72
2022/08/05 08:38:54;;;;;;;5.82;2.65;;;;;;;;;;5117882;27;20042;-72
2022/08/05 08:41:20;;;;;;;3.00;2.80;;;;;;;;;;5120425;27;20389;-72
2022/08/05 08:43:45;;;;;;;3.00;2.63;;;;;;;;;;5117455;27;20035;-71
2022/08/05 08:46:11;;;;;;;3.55;3.10;;;;;;;;;;5116835;27;20019;-72
2022/08/05 08:48:40;;;;;;;2.83;2.63;;;;;;;;;;5121260;27;21157;-72
2022/08/05 08:51:06;;;;;;;2.90;2.70;;;;;;;;;;5119071;27;20035;-74
2022/08/05 08:53:36;;;;;;;7.40;2.70;;;;;;;;;;5120909;27;20426;-72
2022/08/05 08:56:03;;;;;;;3.00;2.80;;;;;;;;;;5121581;27;20041;-73
2022/08/05 08:58:28;;;;;;;3.03;2.80;;;;;;;;;;5119485;27;20016;-72
2022/08/05 09:00:54;;;;;;;2.40;2.25;;;;;;;;;;5120579;27;20054;-75
2022/08/05 09:03:19;;;;;;;3.15;2.85;;;;;;;;;;5119639;27;20027;-73
2022/08/05 09:05:46;;;;;;;2.97;2.78;;;;;;;;;;5117452;27;20051;-74
2022/08/05 09:08:11;;;;;;;3.00;2.80;;;;;;;;;;5119621;27;20058;-73
2022/08/05 09:10:39;;;;;;;2.65;2.45;;;;;;;;;;5117445;27;20055;-72
2022/08/05 09:13:04;;;;;;;3.47;2.65;;;;;;;;;;5119713;27;20434;-76
2022/08/05 09:15:30;;;;;;;3.10;2.58;;;;;;;;;;5117726;27;20030;-75
2022/08/05 09:17:55;;;;;;;2.58;2.25;;;;;;;;;;5101003;27;20411;-72
2022/08/05 09:20:21;;;;;;;4.68;3.17;;;;;;;;;;5116843;27;20031;-79
2022/08/05 09:23:01;;;;;;;2.55;2.35;;;;;;;;;;5117291;27;20023;-72
2022/08/05 09:25:27;;;;;;;2.40;2.20;;;;;;;;;;5116172;27;20374;-73
2022/08/05 09:27:52;;;;;;;2.80;2.60;;;;;;;;;;5115788;27;20109;-72
2022/08/05 09:30:18;;;;;;;2.80;2.60;;;;;;;;;;5117034;27;20099;-75
2022/08/05 09:32:43;;;;;;;2.85;2.65;;;;;;;;;;5115706;27;20503;-73
2022/08/05 09:35:11;;;;;;;2.92;2.72;;;;;;;;;;5118735;27;20034;-74
2022/08/05 09:37:36;;;;;;;3.42;3.10;;;;;;;;;;5117092;27;20373;-71
2022/08/05 09:40:02;;;;;;;2.60;2.40;;;;;;;;;;5119968;27;20044;-74
2022/08/05 09:42:37;;;;;;;3.22;2.95;;;;;;;;;;5117192;27;21007;-77
2022/08/05 09:45:05;;;;;;;3.45;2.65;;;;;;;;;;5115623;27;20019;-73
2022/08/05 09:47:30;;;;;;;2.80;2.60;;;;;;;;;;5116512;27;20027;-73
2022/08/05 09:49:56;;;;;;;2.40;2.20;;;;;;;;;;5117731;27;20015;-74
2022/08/05 09:52:23;;;;;;;2.88;2.17;;;;;;;;;;5117446;27;20026;-73
2022/08/05 09:54:51;;;;;;;2.55;2.42;;;;;;;;;;5117458;27;20440;-74
2022/08/05 09:57:37;;;;;;;3.50;2.83;;;;;;;;;;5116539;27;20015;-73
2022/08/05 10:00:09;;;;;;;2.70;2.53;;;;;;;;;;5103936;27;20034;-74
2022/08/05 10:02:37;;;;;;;3.00;2.60;;;;;;;;;;5117392;27;20038;-73
2022/08/05 10:05:08;;;;;;;2.80;2.60;;;;;;;;;;5114794;27;20030;-73
2022/08/05 10:07:48;;;;;;;2.60;2.40;;;;;;;;;;5118861;27;21105;-77
2022/08/05 10:10:14;;;;;;;3.03;2.72;;;;;;;;;;5116080;27;20475;-73
2022/08/05 10:12:48;;;;;;;5.22;3.40;;;;;;;;;;5117136;27;20035;-75
2022/08/05 10:15:18;;;;;;;3.72;3.42;;;;;;;;;;5103291;27;20346;-74
2022/08/05 10:17:44;;;;;;;4.72;3.92;;;;;;;;;;5119585;27;20034;-73
2022/08/05 10:20:13;;;;;;;4.75;4.35;;;;;;;;;;5116143;27;20055;-75
2022/08/05 10:22:39;;;;;;;4.85;4.35;;;;;;;;;;5118846;27;20417;-74
2022/08/05 10:25:05;;;;;;;6.88;5.78;;;;;;;;;;5120328;27;20018;-74
2022/08/05 10:27:30;;;;;;;7.85;6.43;;;;;;;;;;5116428;27;20024;-74
2022/08/05 10:29:55;;;;;;;7.25;6.50;;;;;;;;;;5119628;27;20456;-74
2022/08/05 10:32:22;;;;;;;6.50;5.90;;;;;;;;;;5118083;27;20056;-73
2022/08/05 10:34:47;;;;;;;7.45;6.75;;;;;;;;;;5117237;28;20124;-74
2022/08/05 10:37:13;;;;;;;6.53;5.82;;;;;;;;;;5116423;27;20055;-73
2022/08/05 10:39:40;;;;;;;6.72;4.95;;;;;;;;;;5117962;27;20493;-73
2022/08/05 10:42:14;;;;;;;7.57;6.88;;;;;;;;;;5116372;28;20023;-74
2022/08/05 10:44:44;;;;;;;6.45;5.85;;;;;;;;;;5116975;28;20118;-73
2022/08/05 10:47:12;;;;;;;5.00;3.72;;;;;;;;;;5119808;28;20023;-76
2022/08/05 10:49:56;;;;;;;4.05;3.75;;;;;;;;;;5114987;28;20111;-73
2022/08/05 10:52:41;;;;;;;4.40;4.00;;;;;;;;;;5115952;28;20063;-74
2022/08/05 10:55:08;;;;;;;3.15;2.95;;;;;;;;;;5118765;28;20032;-73
2022/08/05 10:57:34;;;;;;;2.90;2.70;;;;;;;;;;5117242;28;20082;-74
2022/08/05 11:00:06;;;;;;;3.58;3.03;;;;;;;;;;5117788;28;20518;-75
2022/08/05 11:02:32;;;;;;;3.47;3.05;;;;;;;;;;5113715;28;20027;-73
2022/08/05 11:04:58;;;;;;;5.03;2.90;;;;;;;;;;5117246;28;20027;-74
2022/08/05 11:07:23;;;;;;;3.28;2.97;;;;;;;;;;5119658;28;20062;-77
2022/08/05 11:09:53;;;;;;;3.75;3.42;;;;;;;;;;5119915;28;20023;-76
2022/08/05 11:12:21;;;;;;;3.17;2.97;;;;;;;;;;5117602;28;20054;-74
2022/08/05 11:14:46;;;;;;;3.83;3.15;;;;;;;;;;5115609;28;20031;-74
2022/08/05 11:17:28;;;;;;;4.03;3.55;;;;;;;;;;5118506;28;20106;-77
2022/08/05 11:19:54;;;;;;;2.97;2.78;;;;;;;;;;5118159;28;20050;-76
2022/08/05 11:22:38;;;;;;;4.40;3.00;;;;;;;;;;5115269;28;20470;-73
2022/08/05 11:25:22;;;;;;;3.13;2.83;;;;;;;;;;5117872;28;20726;-75
2022/08/05 11:27:47;;;;;;;3.25;2.95;;;;;;;;;;5115493;28;20035;-74
2022/08/05 11:30:13;;;;;;;3.50;3.20;;;;;;;;;;5118258;28;20422;-74
2022/08/05 11:32:38;;;;;;;3.42;3.13;;;;;;;;;;5115001;28;20502;-76
2022/08/05 11:35:04;;;;;;;3.88;3.58;;;;;;;;;;5117221;28;20063;-75
2022/08/05 11:37:38;;;;;;;3.55;3.25;;;;;;;;;;5114973;28;20035;-73
2022/08/05 11:40:04;;;;;;;3.80;3.50;;;;;;;;;;5116179;28;20043;-75
2022/08/05 11:42:35;;;;;;;3.95;3.65;;;;;;;;;;5119907;28;20469;-80
2022/08/05 11:45:02;;;;;;;4.18;3.88;;;;;;;;;;5118126;28;20505;-76
2022/08/05 11:47:28;;;;;;;3.70;3.20;;;;;;;;;;5114285;27;20413;-76
2022/08/05 11:49:55;;;;;;;3.65;3.35;;;;;;;;;;5118655;27;20016;-74
2022/08/05 11:52:23;;;;;;;3.80;3.50;;;;;;;;;;5120197;27;20035;-73
2022/08/05 11:54:50;;;;;;;5.10;4.70;;;;;;;;;;5120275;27;20027;-73
2022/08/05 11:57:15;;;;;;;4.38;3.97;;;;;;;;;;5121925;27;20479;-74
2022/08/05 11:59:41;;;;;;;4.57;4.18;;;;;;;;;;5121113;27;20087;-74
2022/08/05 12:02:07;;;;;;;4.38;3.95;;;;;;;;;;5120981;27;20474;-75
2022/08/05 12:04:43;;;;;;;4.03;3.58;;;;;;;;;;5122217;27;20042;-74
2022/08/05 12:07:09;;;;;;;4.28;3.03;;;;;;;;;;5120283;27;20449;-74
2022/08/05 12:09:36;;;;;;;4.35;3.97;;;;;;;;;;5119966;27;20100;-75
2022/08/05 12:12:03;;;;;;;3.83;3.00;;;;;;;;;;5120617;27;20116;-75
2022/08/05 12:14:55;;;;;;;4.17;3.40;;;;;;;;;;5122266;27;20409;-75
2022/08/05 12:17:21;;;;;;;3.83;3.53;;;;;;;;;;5115610;27;20420;-74
2022/08/05 12:19:48;;;;;;;3.45;3.15;;;;;;;;;;5122845;27;20883;-73
2022/08/05 12:22:14;;;;;;;3.17;2.95;;;;;;;;;;5121741;27;20027;-76
2022/08/05 12:24:41;;;;;;;3.67;3.38;;;;;;;;;;5120366;27;20158;-74
2022/08/05 12:27:07;;;;;;;3.85;3.53;;;;;;;;;;5119746;27;20084;-74
2022/08/05 12:29:33;;;;;;;3.45;3.22;;;;;;;;;;5120367;27;20072;-74
2022/08/05 12:31:59;;;;;;;3.92;3.53;;;;;;;;;;5121045;27;20036;-74
2022/08/05 12:34:27;;;;;;;4.25;3.00;;;;;;;;;;5118411;27;20178;-74
2022/08/05 12:36:54;;;;;;;3.03;2.77;;;;;;;;;;5119017;27;20027;-73
2022/08/05 12:39:19;;;;;;;2.92;2.72;;;;;;;;;;5120582;27;20244;-75
2022/08/05 12:41:45;;;;;;;3.45;3.17;;;;;;;;;;5117857;27;20074;-77
2022/08/05 12:44:14;;;;;;;3.22;3.03;;;;;;;;;;5117517;27;20170;-74
2022/08/05 12:46:40;;;;;;;3.92;2.97;;;;;;;;;;5119816;27;20261;-75
2022/08/05 12:49:05;;;;;;;3.20;3.00;;;;;;;;;;5120821;27;20101;-75
2022/08/05 12:51:41;;;;;;;3.20;2.90;;;;;;;;;;5120522;27;20102;-75
2022/08/05 12:54:08;;;;;;;3.45;3.15;;;;;;;;;;5121018;27;20292;-74
2022/08/05 12:56:39;;;;;;;3.20;2.90;;;;;;;;;;5118456;27;20091;-73
2022/08/05 12:59:15;;;;;;;3.20;2.90;;;;;;;;;;5118953;27;20054;-76
2022/08/05 13:01:41;;;;;;;3.50;2.97;;;;;;;;;;5117797;27;20027;-74
2022/08/05 13:04:06;;;;;;;3.30;3.00;;;;;;;;;;5118441;27;20080;-74
2022/08/05 13:06:32;;;;;;;3.60;3.30;;;;;;;;;;5118171;27;20449;-74
2022/08/05 13:09:04;;;;;;;3.95;3.08;;;;;;;;;;5120008;27;20049;-74
2022/08/05 13:11:31;;;;;;;3.50;3.20;;;;;;;;;;5120583;27;20035;-74
2022/08/05 13:13:57;;;;;;;4.60;3.60;;;;;;;;;;5118635;27;20132;-75
2022/08/05 13:16:22;;;;;;;2.95;2.75;;;;;;;;;;5107226;27;20190;-75
2022/08/05 13:18:51;;;;;;;5.45;3.05;;;;;;;;;;5094738;27;20027;-76
2022/08/05 13:21:17;;;;;;;3.38;3.17;;;;;;;;;;5112043;27;20053;-75
2022/08/05 13:23:42;;;;;;;4.18;3.78;;;;;;;;;;5120379;27;20337;-73
2022/08/05 13:26:07;;;;;;;3.95;3.55;;;;;;;;;;5099776;27;20041;-73
2022/08/05 13:28:33;;;;;;;3.22;2.92;;;;;;;;;;5104323;27;20059;-74
2022/08/05 13:30:58;;;;;;;3.15;2.92;;;;;;;;;;5106747;27;20080;-73
2022/08/05 13:33:23;;;;;;;3.28;2.97;;;;;;;;;;5117011;27;20026;-74
2022/08/05 13:35:49;;;;;;;3.50;3.15;;;;;;;;;;5101596;27;20038;-75
2022/08/05 13:38:14;;;;;;;3.30;3.00;;;;;;;;;;5100104;27;20446;-76
2022/08/05 13:40:40;;;;;;;2.85;2.58;;;;;;;;;;5098113;27;20044;-77
2022/08/05 13:43:05;;;;;;;3.95;2.90;;;;;;;;;;5112504;27;20023;-75
2022/08/05 13:45:30;;;;;;;3.70;2.97;;;;;;;;;;5114684;27;20026;-78
2022/08/05 13:47:56;;;;;;;4.00;3.60;;;;;;;;;;5101206;27;21066;-75
2022/08/05 13:50:21;;;;;;;3.85;3.55;;;;;;;;;;5120187;27;20110;-73
2022/08/05 13:52:46;;;;;;;3.53;3.22;;;;;;;;;;5120738;27;20038;-75
2022/08/05 13:55:12;;;;;;;3.30;3.07;;;;;;;;;;5111759;27;20023;-74
2022/08/05 13:57:37;;;;;;;3.67;3.33;;;;;;;;;;5104129;27;20251;-75
2022/08/05 14:00:03;;;;;;;3.50;3.20;;;;;;;;;;5105751;27;20023;-75
2022/08/05 14:02:28;;;;;;;3.33;3.13;;;;;;;;;;5104259;27;20047;-75
2022/08/05 14:05:14;;;;;;;3.25;2.92;;;;;;;;;;5104951;27;20038;-75
2022/08/05 14:07:43;;;;;;;3.50;3.00;;;;;;;;;;5103627;27;20031;-74
2022/08/05 14:10:14;;;;;;;3.70;3.30;;;;;;;;;;5105007;27;20046;-75
2022/08/05 14:12:39;;;;;;;4.72;3.20;;;;;;;;;;5102428;27;20126;-77
2022/08/05 14:15:05;;;;;;;3.10;2.78;;;;;;;;;;5100359;27;20098;-75
2022/08/05 14:17:31;;;;;;;3.90;3.50;;;;;;;;;;5102661;27;20115;-73
2022/08/05 14:19:56;;;;;;;3.85;3.55;;;;;;;;;;5102192;27;21439;-74
2022/08/05 14:22:21;;;;;;;4.30;3.90;;;;;;;;;;5099632;27;20046;-78
2022/08/05 14:24:47;;;;;;;4.22;3.83;;;;;;;;;;5104642;27;20100;-74
2022/08/05 14:27:12;;;;;;;4.18;3.88;;;;;;;;;;5105459;27;20025;-77
2022/08/05 14:29:38;;;;;;;5.13;4.40;;;;;;;;;;5106431;27;20032;-75
2022/08/05 14:32:03;;;;;;;6.45;5.57;;;;;;;;;;5108310;27;20088;-76
2022/08/05 14:34:29;;;;;;;8.68;5.63;;;;;;;;;;5115087;28;20056;-75
2022/08/05 14:36:54;;;;;;;5.60;5.10;;;;;;;;;;5117376;27;20038;-75
2022/08/05 14:39:19;;;;;;;5.82;5.22;;;;;;;;;;5118627;27;20411;-74
2022/08/05 14:41:45;;;;;;;5.53;5.03;;;;;;;;;;5109094;27;20039;-74
2022/08/05 14:44:10;;;;;;;6.10;5.50;;;;;;;;;;5114578;28;20129;-73
2022/08/05 14:46:36;;;;;;;6.65;6.05;;;;;;;;;;5119938;28;20043;-76
2022/08/05 14:49:02;;;;;;;7.25;6.57;;;;;;;;;;5119200;28;20026;-75